Meath Environmental Platform

Observations for Trim Patrick St

Time AQI Temp °C Hum % Pres Pa CO μg/m³ H₂S μg/m³ NO μg/m³ NO₂ μg/m³ O₃ μg/m³ SO₂ μg/m³ PM1 μg/m³ PM2.5 μg/m³ PM10 μg/m³
Tuesday 4 August 2026
22:00 2 18 69 35,867 0 6.03 1.97 16.89 60.63 0.74 2.86 5.95 6.55
21:59 2 18 69 35,003 0 5.88 2.03 13.29 63.29 0.7 2.86 6.66 7.33
21:58 2 18 69 33,850 0 6.79 2.17 16.47 61.32 0.27 2 5.94 6.53
21:55 2 18.1 67 30,265 0 7.48 2.14 20.79 61.62 0 2 6.06 6.67
21:54 2 18.2 69 27,533 0 6.61 1.94 16.3 63.58 0 2.86 6.69 7.36
21:53 2 18.2 68 23,890 0 6.82 1.99 13.4 63.34 0.14 2 5.25 5.77
21:51 2 18.3 68 12,556 0 8.1 2.22 30.41 58.15 0 2.86 7.44 8.18
21:50 2 18.3 68 3,912 0 6.03 2.24 17.86 56.8 0.01 2.86 6.72 7.39
21:49 2 18.3 68 109,439 0 7.81 2.29 18.65 63.44 0 2 6.04 6.64
21:48 2 18.4 67 104,444 0 7.32 2.18 21.7 60.78 0 2.86 7.5 8.25
21:47 2 18.4 67 99,150 0 7.42 2.28 20.88 59.25 0.33 4.57 8.95 9.84
21:46 2 18.5 67 95,707 0 7.31 2.21 22.4 64.34 0 4.57 8.96 9.85
21:45 2 18.5 67 92,315 0 5.95 2.01 19.56 60.7 0.28 3.71 6.78 7.45
21:43 2 18.5 67 89,394 0 6.27 2 13.15 64.09 0.58 4.57 8.26 9.08
21:42 2 18.6 67 88,601 0 5.66 1.61 19.85 60.35 0.46 2 6.78 7.45
21:41 2 18.6 67 87,607 0 4.74 1.65 13.61 63.02 0.67 2.86 7.5 8.25
21:39 2 18.6 67 86,764 0 5.16 2.05 13.47 64.1 0.78 2.86 6.78 7.45
21:38 2 18.6 67 86,050 0 5.58 2.05 12.4 64.44 0.59 3.71 6.79 7.47
21:36 2 18.7 67 84,556 0 5.84 2.05 15.42 67.1 0.66 2 5.35 5.88
21:35 2 18.7 66 84,106 0 3.9 2.2 11.01 64.6 0.47 3.71 6.86 7.55